Time;durP1;ratioP1;P1;durP2;ratioP2;P2;SDS_P1;SDS_P2;PMS_P1;PMS_P2;Temp;Humidity;BMP_temperature;BMP_pressure;BME280_temperature;BME280_humidity;BME280_pressure;Samples;Min_cycle;Max_cycle;Signal;HPM_P1;HPM_P2
2024/01/14 00:00:56;;;;;;;0.30;0.30;;;1.80;99.90;0.90;98210;;;;569049;248;24110;-76
2024/01/14 00:03:28;;;;;;;0.30;0.30;;;1.80;99.90;0.90;98203;;;;569377;248;24097;-79
2024/01/14 00:05:52;;;;;;;2.80;1.27;;;1.80;99.90;0.90;98205;;;;568395;248;24105;-78
2024/01/14 00:08:20;;;;;;;0.50;0.50;;;1.80;99.90;0.90;98207;;;;568698;248;24072;-77
2024/01/14 00:10:47;;;;;;;0.50;0.50;;;1.80;99.90;0.90;98199;;;;569090;248;24146;-78
2024/01/14 00:13:15;;;;;;;0.40;0.40;;;1.80;99.90;1.00;98191;;;;569353;248;24091;-76
2024/01/14 00:15:43;;;;;;;0.70;0.40;;;1.90;99.90;0.90;98197;;;;569291;248;24103;-78
2024/01/14 00:18:12;;;;;;;0.63;0.63;;;1.90;99.90;0.90;98196;;;;568992;248;24109;-76
2024/01/14 00:20:40;;;;;;;2.43;0.93;;;1.90;99.90;0.90;98197;;;;569229;248;24133;-77
2024/01/14 00:23:08;;;;;;;0.60;0.60;;;1.80;99.90;0.90;98189;;;;572041;248;24169;-81
2024/01/14 00:25:36;;;;;;;0.30;0.30;;;1.90;99.90;0.90;98183;;;;568981;248;24089;-81
2024/01/14 00:28:04;;;;;;;0.90;0.50;;;1.80;99.90;0.90;98182;;;;569259;248;24168;-79
2024/01/14 00:30:32;;;;;;;0.27;0.27;;;1.80;99.90;0.90;98185;;;;569306;248;24161;-81
2024/01/14 00:33:00;;;;;;;0.33;0.33;;;1.80;99.90;0.90;98184;;;;569845;248;24146;-79
2024/01/14 00:35:28;;;;;;;0.60;0.37;;;1.80;99.90;0.90;98187;;;;572871;248;24103;-82
2024/01/14 00:37:56;;;;;;;1.15;0.70;;;1.80;99.90;0.90;98186;;;;564096;248;35209;-79
2024/01/14 00:40:24;;;;;;;0.40;0.40;;;1.80;99.90;0.90;98188;;;;570684;248;24168;-82
2024/01/14 00:42:52;;;;;;;0.40;0.40;;;1.90;99.90;0.90;98182;;;;570511;248;24145;-77
2024/01/14 00:45:20;;;;;;;1.50;0.85;;;1.80;99.90;0.90;98180;;;;565284;248;35091;-77
2024/01/14 00:47:48;;;;;;;1.53;0.97;;;1.90;99.90;0.90;98180;;;;569730;248;24146;-78
2024/01/14 00:50:16;;;;;;;0.77;0.67;;;1.90;99.90;0.90;98178;;;;569243;248;24085;-77
2024/01/14 00:52:43;;;;;;;0.87;0.80;;;1.90;99.90;0.90;98172;;;;569483;248;24124;-75
2024/01/14 00:55:11;;;;;;;0.50;0.50;;;1.90;99.90;0.90;98179;;;;569461;248;24161;-77
2024/01/14 00:57:39;;;;;;;0.33;0.30;;;1.90;99.90;0.90;98177;;;;569496;248;24173;-77
2024/01/14 01:00:10;;;;;;;0.40;0.40;;;1.90;99.90;0.90;98173;;;;569319;248;24110;-78
2024/01/14 01:02:38;;;;;;;0.30;0.30;;;1.80;99.90;0.90;98156;;;;569759;248;24152;-77
2024/01/14 01:05:06;;;;;;;0.40;0.40;;;1.80;99.90;0.90;98172;;;;569241;248;24142;-78
2024/01/14 01:07:34;;;;;;;0.50;0.50;;;1.80;99.90;0.90;98165;;;;569257;248;24142;-77
2024/01/14 01:10:02;;;;;;;0.60;0.60;;;1.80;99.90;0.90;98167;;;;569709;248;24125;-76
2024/01/14 01:12:30;;;;;;;1.40;0.87;;;1.80;99.90;0.80;98147;;;;569793;248;24097;-77
2024/01/14 01:14:57;;;;;;;1.27;0.60;;;1.80;99.90;0.80;98144;;;;569468;248;24109;-77
2024/01/14 01:17:25;;;;;;;0.47;0.47;;;1.80;99.90;0.80;98154;;;;568763;248;24111;-77
2024/01/14 01:19:53;;;;;;;0.50;0.50;;;1.80;99.90;0.90;98142;;;;568552;248;24121;-78
2024/01/14 01:22:21;;;;;;;0.37;0.37;;;1.80;99.90;0.90;98153;;;;569015;248;24148;-76
2024/01/14 01:24:49;;;;;;;1.03;0.73;;;1.80;99.90;0.90;98156;;;;568838;248;24099;-75
2024/01/14 01:27:18;;;;;;;3.40;1.23;;;1.80;99.90;0.80;98150;;;;563674;248;35215;-77
2024/01/14 01:29:46;;;;;;;0.73;0.60;;;1.80;99.90;0.90;98161;;;;568560;248;24110;-78
2024/01/14 01:32:14;;;;;;;0.80;0.80;;;1.80;99.90;0.90;98159;;;;568887;248;24109;-76
2024/01/14 01:34:41;;;;;;;0.30;0.30;;;1.80;99.90;0.90;98148;;;;568539;248;24142;-76
2024/01/14 01:37:10;;;;;;;0.37;0.37;;;1.90;99.90;1.00;98150;;;;568266;248;24092;-77
2024/01/14 01:39:38;;;;;;;0.37;0.37;;;1.90;99.90;0.90;98139;;;;568769;248;24182;-77
2024/01/14 01:42:06;;;;;;;0.50;0.50;;;1.90;99.90;0.90;98145;;;;568855;248;24099;-76
2024/01/14 01:44:37;;;;;;;0.40;0.40;;;1.90;99.90;0.90;98143;;;;569672;248;24130;-77
2024/01/14 01:47:05;;;;;;;1.40;0.50;;;1.80;99.90;0.90;98147;;;;569505;248;24105;-77
2024/01/14 01:49:32;;;;;;;0.43;0.33;;;1.80;99.90;0.90;98136;;;;568508;248;24092;-76
2024/01/14 01:51:57;;;;;;;0.33;0.33;;;1.80;99.90;0.90;98149;;;;570481;248;25207;-76
2024/01/14 01:54:25;;;;;;;0.37;0.37;;;1.80;99.90;0.90;98148;;;;569647;248;24152;-77
2024/01/14 01:56:53;;;;;;;0.93;0.60;;;1.80;99.90;0.90;98147;;;;569236;248;24092;-77
2024/01/14 01:59:25;;;;;;;0.50;0.50;;;1.80;99.90;0.90;98141;;;;569543;248;24123;-76
2024/01/14 02:01:49;;;;;;;0.47;0.47;;;1.80;99.90;0.90;98144;;;;578054;248;24122;-79
2024/01/14 02:04:17;;;;;;;0.50;0.50;;;1.80;99.90;0.90;98144;;;;570005;248;24097;-78
2024/01/14 02:06:45;;;;;;;0.50;0.50;;;1.80;99.90;0.90;98136;;;;569704;248;24150;-77
2024/01/14 02:09:14;;;;;;;1.20;0.80;;;1.90;99.90;0.90;98130;;;;565038;248;35150;-76
2024/01/14 02:11:41;;;;;;;0.83;0.80;;;1.90;99.90;0.90;98131;;;;564364;248;35125;-77
2024/01/14 02:14:09;;;;;;;2.10;1.17;;;1.90;99.90;0.90;98133;;;;564618;248;35120;-78
2024/01/14 02:16:38;;;;;;;0.80;0.80;;;1.90;99.90;1.00;98130;;;;569093;248;24173;-76
2024/01/14 02:19:06;;;;;;;0.93;0.57;;;1.90;99.90;1.00;98131;;;;568843;248;24090;-76
2024/01/14 02:21:36;;;;;;;0.53;0.53;;;1.90;99.90;1.00;98126;;;;569358;248;24109;-77
2024/01/14 02:24:13;;;;;;;0.97;0.57;;;2.00;99.90;1.00;98132;;;;569213;248;24101;-76
2024/01/14 02:26:41;;;;;;;2.53;0.70;;;1.90;99.90;0.90;98125;;;;577518;245;24154;-77
2024/01/14 02:29:13;;;;;;;0.50;0.50;;;1.90;99.90;0.90;98128;;;;569113;248;24098;-76
2024/01/14 02:31:38;;;;;;;3.00;0.87;;;1.90;99.90;0.90;98130;;;;568513;248;24139;-77
2024/01/14 02:34:09;;;;;;;0.90;0.70;;;1.90;99.90;0.90;98129;;;;568307;248;24076;-77
2024/01/14 02:36:33;;;;;;;0.50;0.50;;;1.90;99.90;0.90;98124;;;;568596;248;24128;-76
2024/01/14 02:39:01;;;;;;;0.70;0.70;;;1.80;99.90;0.90;98116;;;;577477;247;24116;-77
2024/01/14 02:41:29;;;;;;;0.50;0.50;;;1.80;99.90;0.90;98134;;;;569454;248;24209;-78
2024/01/14 02:43:58;;;;;;;1.00;0.93;;;1.80;99.90;0.90;98128;;;;569240;248;24095;-76
2024/01/14 02:46:30;;;;;;;2.23;0.73;;;1.80;99.90;0.90;98120;;;;569414;248;24114;-76
2024/01/14 02:48:55;;;;;;;1.73;0.83;;;1.80;99.90;0.90;98121;;;;568785;248;24207;-76
2024/01/14 02:51:26;;;;;;;0.77;0.63;;;1.80;99.90;0.90;98128;;;;568388;248;24107;-77
2024/01/14 02:53:51;;;;;;;0.60;0.60;;;1.80;99.90;0.90;98123;;;;568128;248;24147;-77
2024/01/14 02:56:19;;;;;;;0.77;0.77;;;1.80;99.90;0.90;98118;;;;568442;248;24092;-76
2024/01/14 02:58:46;;;;;;;0.50;0.50;;;1.90;99.90;0.90;98115;;;;568309;248;24102;-76
2024/01/14 03:01:14;;;;;;;2.07;0.60;;;1.90;99.90;0.90;98121;;;;568441;248;24102;-80
2024/01/14 03:03:42;;;;;;;1.03;0.60;;;1.90;99.90;0.90;98114;;;;569862;248;24130;-77
2024/01/14 03:06:10;;;;;;;4.73;0.97;;;1.90;99.90;0.90;98118;;;;569599;248;24128;-79
2024/01/14 03:08:38;;;;;;;0.57;0.47;;;1.90;99.90;0.90;98123;;;;569389;248;24107;-77
2024/01/14 03:11:06;;;;;;;0.57;0.57;;;1.90;99.90;0.90;98110;;;;570442;248;24078;-76
2024/01/14 03:13:34;;;;;;;0.83;0.70;;;1.90;99.90;0.90;98126;;;;570035;248;24102;-77
2024/01/14 03:16:02;;;;;;;0.40;0.40;;;1.90;99.90;0.90;98107;;;;569622;248;24114;-79
2024/01/14 03:18:30;;;;;;;0.37;0.37;;;1.90;99.90;0.90;98106;;;;570350;248;24099;-78
2024/01/14 03:20:58;;;;;;;0.70;0.70;;;1.90;99.90;0.90;98109;;;;569408;248;24101;-81
2024/01/14 03:23:25;;;;;;;0.60;0.60;;;1.90;99.90;0.90;98110;;;;569002;248;24134;-82
2024/01/14 03:25:54;;;;;;;0.70;0.70;;;1.90;99.90;0.90;98109;;;;577654;244;24146;-80
2024/01/14 03:28:22;;;;;;;0.40;0.40;;;1.90;99.90;0.90;98111;;;;568724;248;24158;-80
2024/01/14 03:30:51;;;;;;;0.87;0.83;;;1.80;99.90;0.90;98108;;;;568913;248;24089;-80
2024/01/14 03:33:19;;;;;;;3.33;0.57;;;1.90;99.90;0.90;98110;;;;568677;248;24156;-80
2024/01/14 03:35:46;;;;;;;1.70;1.10;;;1.90;99.90;0.90;98103;;;;563874;248;35132;-79
2024/01/14 03:38:14;;;;;;;4.07;1.30;;;1.90;99.90;1.00;98106;;;;568578;248;24160;-78
2024/01/14 03:40:46;;;;;;;0.60;0.60;;;1.90;99.90;1.00;98110;;;;568948;248;24112;-77
2024/01/14 03:43:10;;;;;;;0.50;0.50;;;2.00;99.90;1.00;98117;;;;569102;248;24104;-77
2024/01/14 03:45:38;;;;;;;0.53;0.47;;;2.00;99.90;1.00;98118;;;;569489;248;24150;-78
2024/01/14 03:48:09;;;;;;;0.80;0.77;;;2.00;99.90;1.00;98111;;;;578092;247;24087;-77
2024/01/14 03:50:34;;;;;;;0.67;0.67;;;2.00;99.90;1.00;98111;;;;568986;248;24121;-77
2024/01/14 03:53:02;;;;;;;2.63;0.60;;;2.00;99.90;1.00;98121;;;;568977;248;24137;-78
2024/01/14 03:55:30;;;;;;;0.40;0.40;;;2.00;99.90;1.00;98118;;;;571974;248;24104;-77
2024/01/14 03:57:58;;;;;;;1.53;0.30;;;1.90;99.90;1.00;98118;;;;571501;248;24141;-77
2024/01/14 04:00:26;;;;;;;3.50;0.93;;;1.90;99.90;0.90;98111;;;;569194;248;24094;-77
2024/01/14 04:02:54;;;;;;;1.27;0.60;;;1.90;99.90;0.90;98111;;;;569095;248;24164;-77
2024/01/14 04:05:22;;;;;;;2.67;0.97;;;1.90;99.90;0.90;98121;;;;569108;248;24141;-77
2024/01/14 04:07:50;;;;;;;0.63;0.63;;;1.80;99.90;0.90;98118;;;;569053;248;24125;-76
2024/01/14 04:10:18;;;;;;;1.40;0.70;;;1.80;99.90;0.90;98112;;;;568973;248;24099;-77
2024/01/14 04:12:46;;;;;;;0.40;0.40;;;1.80;99.90;0.80;98111;;;;569426;248;24151;-76
2024/01/14 04:15:15;;;;;;;1.80;0.73;;;1.80;99.90;0.80;98119;;;;570515;248;25229;-74
2024/01/14 04:17:42;;;;;;;0.70;0.70;;;1.80;99.90;0.80;98113;;;;570099;248;24105;-76
2024/01/14 04:20:13;;;;;;;1.87;0.83;;;1.80;99.90;0.80;98121;;;;569921;248;24099;-77
2024/01/14 04:22:41;;;;;;;0.53;0.53;;;1.80;99.90;0.80;98121;;;;572660;248;24097;-76
2024/01/14 04:25:12;;;;;;;0.70;0.70;;;1.80;99.90;0.80;98110;;;;569140;248;24119;-76
2024/01/14 04:27:37;;;;;;;2.37;0.87;;;1.70;99.90;0.80;98115;;;;568823;248;24108;-77
2024/01/14 04:30:09;;;;;;;1.67;0.97;;;1.70;99.90;0.70;98109;;;;569580;248;24142;-78
2024/01/14 04:32:34;;;;;;;0.47;0.47;;;1.70;99.90;0.70;98107;;;;569102;248;24095;-76
2024/01/14 04:35:02;;;;;;;0.83;0.60;;;1.70;99.90;0.70;98122;;;;569379;248;24111;-77
2024/01/14 04:37:29;;;;;;;0.70;0.57;;;1.70;99.90;0.70;98114;;;;572000;248;24130;-77
2024/01/14 04:39:58;;;;;;;1.63;0.90;;;1.70;99.90;0.80;98118;;;;569482;248;24138;-77
2024/01/14 04:42:26;;;;;;;0.40;0.40;;;1.70;99.90;0.70;98118;;;;569154;248;24133;-77
2024/01/14 04:44:55;;;;;;;0.83;0.63;;;1.70;99.90;0.70;98107;;;;568757;248;24101;-77
2024/01/14 04:47:23;;;;;;;3.40;0.70;;;1.60;99.90;0.70;98119;;;;568875;248;24190;-77
2024/01/14 04:49:50;;;;;;;1.40;0.93;;;1.60;99.90;0.70;98104;;;;568999;248;24089;-77
2024/01/14 04:52:18;;;;;;;0.87;0.87;;;1.60;99.90;0.60;98112;;;;568530;248;24163;-76
2024/01/14 04:54:46;;;;;;;0.73;0.70;;;1.60;99.90;0.70;98112;;;;568485;248;24149;-78
2024/01/14 04:57:15;;;;;;;0.77;0.77;;;1.60;99.90;0.70;98099;;;;568671;248;24180;-77
2024/01/14 04:59:42;;;;;;;0.87;0.83;;;1.60;99.90;0.70;98101;;;;568941;248;24114;-77
2024/01/14 05:02:10;;;;;;;6.57;1.43;;;1.60;99.90;0.70;98114;;;;568627;248;24135;-77
2024/01/14 05:04:38;;;;;;;3.03;1.53;;;1.60;99.90;0.70;98109;;;;568780;248;24137;-78
2024/01/14 05:07:06;;;;;;;2.93;1.23;;;1.70;99.90;0.70;98108;;;;568668;248;24148;-77
2024/01/14 05:09:34;;;;;;;1.07;0.87;;;1.70;99.90;0.80;98111;;;;568560;248;24115;-77
2024/01/14 05:12:02;;;;;;;1.33;1.00;;;1.70;99.90;0.70;98101;;;;568482;248;24137;-76
2024/01/14 05:14:30;;;;;;;0.50;0.50;;;1.70;99.90;0.80;98102;;;;568797;248;24121;-77
2024/01/14 05:16:58;;;;;;;1.80;0.40;;;1.70;99.90;0.80;98106;;;;569094;248;24124;-77
2024/01/14 05:19:26;;;;;;;0.53;0.53;;;1.70;99.90;0.80;98100;;;;569157;248;24148;-78
2024/01/14 05:21:54;;;;;;;3.00;0.90;;;1.70;99.90;0.80;98103;;;;569289;248;24152;-78
2024/01/14 05:24:22;;;;;;;1.47;0.43;;;1.70;99.90;0.80;98108;;;;569304;248;24077;-78
2024/01/14 05:26:50;;;;;;;4.27;1.33;;;1.70;99.90;0.80;98106;;;;570325;248;24113;-76
2024/01/14 05:29:18;;;;;;;2.73;0.53;;;1.80;99.90;0.80;98111;;;;570330;248;24086;-77
2024/01/14 05:31:45;;;;;;;3.93;1.33;;;1.80;99.90;0.80;98102;;;;573032;248;24131;-77
2024/01/14 05:34:13;;;;;;;3.73;0.97;;;1.70;99.90;0.80;98112;;;;570092;248;24208;-77
2024/01/14 05:36:41;;;;;;;0.90;0.77;;;1.80;99.90;0.80;98109;;;;569943;248;24091;-79
2024/01/14 05:39:09;;;;;;;0.47;0.47;;;1.70;99.90;0.80;98114;;;;569820;248;24095;-79
2024/01/14 05:41:37;;;;;;;0.60;0.60;;;1.80;99.90;0.80;98112;;;;569629;248;24093;-77
2024/01/14 05:44:06;;;;;;;0.33;0.33;;;1.80;99.90;0.90;98108;;;;569157;248;24210;-78
2024/01/14 05:46:34;;;;;;;3.40;0.77;;;1.80;99.90;0.80;98109;;;;569383;248;24117;-78
2024/01/14 05:49:01;;;;;;;0.50;0.50;;;1.80;99.90;0.90;98113;;;;569305;248;24216;-77
2024/01/14 05:51:29;;;;;;;2.17;0.80;;;1.80;99.90;0.80;98121;;;;569240;248;24093;-77
2024/01/14 05:53:57;;;;;;;0.23;0.23;;;1.80;99.90;0.80;98117;;;;569419;248;24123;-76
2024/01/14 05:56:28;;;;;;;0.83;0.83;;;1.80;99.90;0.80;98106;;;;568954;248;24123;-78
2024/01/14 05:58:56;;;;;;;0.93;0.93;;;1.80;99.90;0.80;98115;;;;569012;248;24141;-76
2024/01/14 06:01:25;;;;;;;0.40;0.30;;;1.70;99.90;0.70;98111;;;;577385;248;24223;-77
2024/01/14 06:03:52;;;;;;;0.40;0.37;;;1.70;99.90;0.70;98099;;;;568619;248;24284;-77
2024/01/14 06:06:20;;;;;;;8.60;1.47;;;1.70;99.90;0.70;98105;;;;568678;248;24114;-79
2024/01/14 06:08:48;;;;;;;3.37;1.77;;;1.60;99.90;0.60;98103;;;;568544;248;24082;-78
2024/01/14 06:11:16;;;;;;;1.30;1.17;;;1.60;99.90;0.60;98118;;;;568722;248;24177;-77
2024/01/14 06:13:45;;;;;;;5.03;1.50;;;1.50;99.90;0.60;98103;;;;568697;248;24165;-76
2024/01/14 06:16:13;;;;;;;2.50;1.43;;;1.50;99.90;0.60;98123;;;;569331;248;24160;-79
2024/01/14 06:18:41;;;;;;;0.53;0.47;;;1.50;99.90;0.50;98118;;;;569218;248;24113;-75
2024/01/14 06:21:09;;;;;;;1.23;1.13;;;1.50;99.90;0.60;98104;;;;569092;248;24093;-77
2024/01/14 06:23:37;;;;;;;2.83;1.20;;;1.50;99.90;0.60;98110;;;;568966;248;25166;-78
2024/01/14 06:26:05;;;;;;;6.10;1.87;;;1.50;99.90;0.60;98115;;;;571667;245;24143;-78
2024/01/14 06:28:33;;;;;;;2.57;1.23;;;1.50;99.90;0.60;98112;;;;568610;248;24096;-78
2024/01/14 06:31:01;;;;;;;1.03;1.00;;;1.50;99.90;0.60;98107;;;;568619;248;24099;-77
2024/01/14 06:33:29;;;;;;;5.03;2.30;;;1.50;99.90;0.60;98117;;;;568770;248;24109;-78
2024/01/14 06:35:57;;;;;;;2.63;0.97;;;1.50;99.90;0.60;98113;;;;568305;248;24102;-77
2024/01/14 06:38:25;;;;;;;1.23;0.93;;;1.60;99.90;0.60;98124;;;;569647;248;24132;-78
2024/01/14 06:40:53;;;;;;;5.17;1.93;;;1.60;99.90;0.70;98129;;;;569710;248;24110;-79
2024/01/14 06:43:22;;;;;;;9.73;0.87;;;1.70;99.90;0.70;98128;;;;569315;248;24112;-79
2024/01/14 06:45:50;;;;;;;2.60;1.00;;;1.70;99.90;0.80;98130;;;;569434;248;24133;-79
2024/01/14 06:48:18;;;;;;;4.93;1.50;;;1.70;99.90;0.80;98134;;;;569425;248;24102;-79
2024/01/14 06:50:46;;;;;;;2.27;1.23;;;1.70;99.90;0.80;98135;;;;569529;248;24134;-82
2024/01/14 06:53:13;;;;;;;7.23;1.60;;;1.70;99.90;0.80;98137;;;;569609;248;24091;-79
2024/01/14 06:55:41;;;;;;;2.03;1.10;;;1.80;99.90;0.80;98130;;;;572102;248;24075;-82
2024/01/14 06:58:09;;;;;;;0.93;0.60;;;1.80;99.90;0.80;98135;;;;568973;248;24093;-80
2024/01/14 07:00:37;;;;;;;4.07;1.47;;;1.80;99.90;0.80;98141;;;;568894;248;24078;-79
2024/01/14 07:03:05;;;;;;;2.63;1.20;;;1.70;99.90;0.80;98138;;;;569009;248;24149;-81
2024/01/14 07:05:33;;;;;;;0.63;0.63;;;1.80;99.90;0.80;98144;;;;568873;248;24193;-79
2024/01/14 07:08:02;;;;;;;0.47;0.47;;;1.80;99.90;0.90;98156;;;;568636;248;24199;-80
2024/01/14 07:10:29;;;;;;;0.67;0.33;;;1.80;99.90;0.90;98159;;;;568777;248;24111;-77
2024/01/14 07:12:57;;;;;;;1.80;0.83;;;1.90;99.90;1.00;98165;;;;577096;248;24213;-79
2024/01/14 07:15:25;;;;;;;3.20;1.33;;;1.90;99.90;0.90;98164;;;;568742;248;24168;-78
2024/01/14 07:17:53;;;;;;;3.63;1.27;;;2.00;99.90;1.00;98163;;;;568918;248;25143;-78
2024/01/14 07:20:21;;;;;;;3.77;1.90;;;2.00;99.90;1.00;98156;;;;568997;248;24187;-80
2024/01/14 07:22:49;;;;;;;3.30;1.60;;;2.00;99.90;1.10;98156;;;;569073;248;24097;-79
2024/01/14 07:25:18;;;;;;;5.60;1.83;;;2.00;99.90;1.10;98152;;;;569120;248;24104;-78
2024/01/14 07:27:46;;;;;;;1.37;1.17;;;2.10;99.90;1.00;98157;;;;568846;248;24154;-79
2024/01/14 07:30:17;;;;;;;2.77;1.50;;;2.00;99.90;1.00;98156;;;;568625;248;24158;-80
2024/01/14 07:32:41;;;;;;;4.43;1.33;;;2.10;99.90;1.10;98159;;;;568558;248;24193;-79
2024/01/14 07:35:09;;;;;;;0.70;0.70;;;2.10;99.90;1.10;98154;;;;568853;248;24095;-79
2024/01/14 07:37:37;;;;;;;3.90;1.40;;;2.10;99.90;1.10;98149;;;;568888;248;24143;-77
2024/01/14 07:40:08;;;;;;;3.90;1.20;;;2.10;99.90;1.10;98161;;;;569017;248;24086;-78
2024/01/14 07:42:33;;;;;;;8.80;1.73;;;2.10;99.90;1.10;98156;;;;568864;248;24118;-79
2024/01/14 07:45:02;;;;;;;5.73;1.83;;;2.20;99.90;1.10;98166;;;;568904;248;24107;-78
2024/01/14 07:47:29;;;;;;;1.07;1.03;;;2.10;99.90;1.10;98160;;;;569216;248;24133;-79
2024/01/14 07:49:57;;;;;;;2.97;1.50;;;2.10;99.90;1.10;98166;;;;570514;248;24125;-81
2024/01/14 07:52:25;;;;;;;5.25;2.67;;;2.10;99.90;1.10;98158;;;;565221;248;35329;-79
2024/01/14 07:54:54;;;;;;;11.03;2.30;;;2.10;99.90;1.20;98156;;;;569957;248;24099;-78
2024/01/14 07:57:21;;;;;;;1.20;1.10;;;2.20;99.90;1.20;98157;;;;569822;248;24087;-77
2024/01/14 07:59:49;;;;;;;5.07;1.93;;;2.20;99.90;1.10;98167;;;;569280;248;24093;-80
2024/01/14 08:02:17;;;;;;;2.00;1.37;;;2.20;99.90;1.10;98167;;;;569361;248;24118;-78
2024/01/14 08:04:45;;;;;;;6.70;0.83;;;2.10;99.90;1.00;98160;;;;569313;248;24093;-79
2024/01/14 08:07:14;;;;;;;8.90;1.90;;;2.00;99.90;1.00;98153;;;;569138;248;24205;-80
2024/01/14 08:09:42;;;;;;;5.47;1.63;;;2.00;99.90;0.90;98155;;;;568993;248;24174;-80
2024/01/14 08:12:09;;;;;;;1.77;1.03;;;2.00;99.90;0.90;98155;;;;569006;248;24148;-80
2024/01/14 08:14:41;;;;;;;10.20;2.20;;;1.90;99.90;0.80;98145;;;;569058;248;24129;-79
2024/01/14 08:17:05;;;;;;;7.60;1.93;;;1.90;99.90;0.80;98156;;;;577178;248;25159;-79
2024/01/14 08:19:33;;;;;;;2.40;1.47;;;1.90;99.90;0.80;98152;;;;569558;248;24123;-78
2024/01/14 08:22:01;;;;;;;4.10;2.03;;;1.80;99.90;0.90;98163;;;;569500;248;24107;-78
2024/01/14 08:24:32;;;;;;;2.53;1.30;;;2.00;99.90;1.00;98163;;;;569245;248;24094;-78
2024/01/14 08:26:57;;;;;;;5.40;1.63;;;2.00;99.90;1.10;98165;;;;568953;248;24146;-78
2024/01/14 08:29:25;;;;;;;1.80;1.33;;;2.10;99.90;1.10;98157;;;;568888;248;24098;-79
2024/01/14 08:31:53;;;;;;;1.07;0.93;;;2.20;99.90;1.20;98163;;;;568831;248;24094;-81
2024/01/14 08:34:21;;;;;;;1.90;1.10;;;2.20;99.90;1.30;98176;;;;568855;248;24105;-77
2024/01/14 08:36:49;;;;;;;7.72;2.80;;;2.30;99.90;1.40;98183;;;;563542;248;35177;-77
2024/01/14 08:39:17;;;;;;;3.37;1.67;;;2.40;99.90;1.50;98165;;;;568882;248;24187;-78
2024/01/14 08:41:45;;;;;;;4.23;1.83;;;2.50;99.90;1.70;98182;;;;569137;248;24160;-77
2024/01/14 08:44:14;;;;;;;6.57;2.10;;;2.60;99.90;1.80;98170;;;;569457;248;24085;-81
2024/01/14 08:46:44;;;;;;;6.60;1.80;;;2.90;99.90;1.90;98179;;;;568734;248;24140;-79
2024/01/14 08:49:09;;;;;;;4.60;2.60;;;2.90;99.90;1.90;98179;;;;568781;248;25170;-79
2024/01/14 08:51:37;;;;;;;4.97;2.77;;;2.90;99.90;2.00;98179;;;;569217;248;24158;-79
2024/01/14 08:54:05;;;;;;;1.63;1.53;;;3.00;99.90;2.10;98169;;;;569105;248;24112;-81
2024/01/14 08:56:34;;;;;;;2.53;1.60;;;3.20;99.90;2.20;98170;;;;569322;248;24133;-82
2024/01/14 08:59:02;;;;;;;1.37;0.70;;;3.20;99.90;2.30;98180;;;;569336;248;24097;-79
2024/01/14 09:01:30;;;;;;;2.70;1.40;;;3.30;99.90;2.20;98178;;;;570301;248;24125;-78
2024/01/14 09:03:57;;;;;;;1.17;1.07;;;3.20;99.90;2.20;98176;;;;569984;248;24121;-82
2024/01/14 09:06:25;;;;;;;2.17;1.43;;;3.20;99.90;2.10;98174;;;;569413;248;24093;-79
2024/01/14 09:08:54;;;;;;;4.17;2.00;;;3.10;99.90;2.10;98184;;;;569375;248;24106;-78
2024/01/14 09:11:22;;;;;;;11.50;1.50;;;3.10;99.90;2.10;98185;;;;568972;248;24108;-82
2024/01/14 09:13:50;;;;;;;6.47;1.33;;;3.10;99.90;2.20;98184;;;;569037;248;24141;-81
2024/01/14 09:16:18;;;;;;;5.83;1.43;;;3.20;99.90;2.20;98192;;;;569089;248;24102;-82
2024/01/14 09:18:46;;;;;;;10.53;1.53;;;3.20;99.90;2.30;98182;;;;569172;248;24438;-81
2024/01/14 09:21:14;;;;;;;6.47;1.07;;;3.30;99.90;2.50;98193;;;;569161;248;24111;-80
2024/01/14 09:23:41;;;;;;;2.13;1.37;;;3.40;99.90;2.60;98192;;;;569223;248;24143;-83
2024/01/14 09:26:09;;;;;;;7.07;2.07;;;3.60;99.90;2.70;98194;;;;569358;244;24079;-81
2024/01/14 09:28:38;;;;;;;2.37;1.37;;;3.90;99.90;3.00;98201;;;;568838;248;24093;-79
2024/01/14 09:31:09;;;;;;;8.57;2.20;;;3.90;99.90;3.20;98194;;;;568919;248;24142;-78
2024/01/14 09:33:34;;;;;;;3.97;1.40;;;4.10;99.90;3.30;98194;;;;568724;248;24156;-78
2024/01/14 09:36:11;;;;;;;7.77;2.33;;;4.30;99.90;3.30;98200;;;;568817;248;24083;-80
2024/01/14 09:38:39;;;;;;;8.97;1.80;;;4.30;99.90;3.30;98206;;;;564927;248;24156;-80
2024/01/14 09:41:22;;;;;;;3.87;0.97;;;4.30;99.90;3.30;98197;;;;568387;248;24159;-80
2024/01/14 09:43:53;;;;;;;4.60;1.63;;;4.30;99.90;3.20;98198;;;;571055;248;24205;-79
2024/01/14 09:46:18;;;;;;;8.13;1.80;;;4.20;99.90;3.20;98191;;;;568310;248;24110;-80
2024/01/14 09:48:46;;;;;;;7.73;1.87;;;4.30;99.90;3.30;98195;;;;568685;248;24134;-77
2024/01/14 09:51:14;;;;;;;0.50;0.50;;;4.30;99.90;3.40;98197;;;;568593;248;24093;-77
2024/01/14 09:53:45;;;;;;;1.00;0.97;;;4.40;99.90;3.30;98194;;;;568512;248;25147;-78
2024/01/14 09:56:09;;;;;;;4.03;2.30;;;4.30;99.90;3.40;98198;;;;576863;248;24136;-77
2024/01/14 09:58:39;;;;;;;1.43;1.33;;;4.40;99.90;3.40;98185;;;;571317;248;24121;-78
2024/01/14 10:01:06;;;;;;;2.30;1.57;;;4.40;99.90;3.40;98193;;;;568626;248;24083;-78
2024/01/14 10:03:37;;;;;;;9.37;2.07;;;4.40;99.90;3.50;98185;;;;568147;248;24152;-79
2024/01/14 10:06:05;;;;;;;7.40;1.80;;;4.40;99.90;3.50;98189;;;;568174;248;24099;-79
2024/01/14 10:08:30;;;;;;;6.17;2.70;;;4.40;99.90;3.60;98186;;;;567890;248;24129;-78
2024/01/14 10:10:58;;;;;;;2.13;1.70;;;4.50;99.90;3.70;98185;;;;568405;246;24103;-78
2024/01/14 10:13:30;;;;;;;5.27;1.87;;;4.60;99.90;3.70;98188;;;;569488;248;24126;-79
2024/01/14 10:15:54;;;;;;;4.97;1.97;;;4.70;99.90;3.70;98191;;;;569035;248;24164;-78
2024/01/14 10:18:21;;;;;;;3.40;2.77;;;4.70;99.90;3.80;98196;;;;569013;248;24107;-78
2024/01/14 10:20:50;;;;;;;2.77;1.50;;;4.70;99.90;3.80;98185;;;;577849;248;24122;-79
2024/01/14 10:23:17;;;;;;;6.10;1.97;;;4.80;99.90;3.80;98183;;;;569163;248;24094;-79
2024/01/14 10:25:46;;;;;;;1.53;1.33;;;4.90;99.90;3.90;98180;;;;569010;248;24109;-79
2024/01/14 10:28:15;;;;;;;1.90;1.80;;;4.90;99.90;4.00;98178;;;;568859;248;24124;-78
2024/01/14 10:30:43;;;;;;;5.10;1.73;;;5.10;99.90;4.10;98179;;;;568619;248;24149;-79
2024/01/14 10:33:10;;;;;;;3.50;1.93;;;5.10;99.90;4.30;98179;;;;568314;248;24111;-78
2024/01/14 10:35:38;;;;;;;7.60;2.03;;;5.20;99.90;4.20;98174;;;;568410;248;24118;-78
2024/01/14 10:38:06;;;;;;;4.63;1.70;;;5.20;99.90;4.10;98172;;;;570659;248;24146;-77
2024/01/14 10:40:34;;;;;;;6.37;1.47;;;5.10;99.90;4.10;98180;;;;568581;248;24090;-79
2024/01/14 10:43:03;;;;;;;5.87;2.17;;;5.00;99.90;4.00;98166;;;;568520;248;24130;-78
2024/01/14 10:45:31;;;;;;;7.13;1.97;;;5.00;99.90;3.90;98165;;;;568659;248;24098;-79
2024/01/14 10:47:58;;;;;;;4.00;1.27;;;5.00;99.90;3.90;98169;;;;568534;248;24106;-81
2024/01/14 10:50:30;;;;;;;1.47;1.37;;;4.90;99.90;3.80;98160;;;;570865;248;24134;-78
2024/01/14 10:52:55;;;;;;;6.70;1.77;;;4.80;99.90;3.80;98163;;;;568338;248;24113;-80
2024/01/14 10:55:31;;;;;;;4.53;1.57;;;4.80;99.90;3.70;98169;;;;568660;248;24101;-79
2024/01/14 10:57:59;;;;;;;3.73;1.70;;;4.70;99.90;3.70;98161;;;;568534;248;24097;-81
2024/01/14 11:00:27;;;;;;;7.83;1.83;;;4.70;99.90;3.80;98162;;;;568808;248;24089;-79
2024/01/14 11:02:55;;;;;;;3.53;1.53;;;4.80;99.90;3.80;98172;;;;568710;248;24146;-79
2024/01/14 11:05:26;;;;;;;6.73;1.70;;;4.80;99.90;3.80;98168;;;;568493;248;24087;-78
2024/01/14 11:07:51;;;;;;;1.73;1.47;;;4.70;99.90;3.80;98161;;;;567900;248;24111;-79
2024/01/14 11:10:19;;;;;;;3.60;1.00;;;4.70;99.90;3.80;98165;;;;576955;248;24107;-82
2024/01/14 11:12:56;;;;;;;1.17;1.10;;;4.70;99.90;3.80;98169;;;;577110;248;24118;-79
2024/01/14 11:15:33;;;;;;;5.00;1.13;;;4.70;99.90;3.80;98163;;;;567967;248;24122;-80
2024/01/14 11:18:12;;;;;;;3.07;1.47;;;4.80;99.90;3.90;98165;;;;576642;248;24149;-80
2024/01/14 11:20:40;;;;;;;2.50;1.53;;;4.80;99.90;4.00;98157;;;;568725;248;24133;-80
2024/01/14 11:23:08;;;;;;;5.90;2.27;;;4.90;99.90;4.10;98160;;;;569204;248;24103;-82
2024/01/14 11:25:36;;;;;;;4.23;1.37;;;5.00;99.90;4.10;98154;;;;570120;248;24111;-81
2024/01/14 11:28:04;;;;;;;3.00;1.13;;;5.10;99.90;4.10;98156;;;;569479;248;24117;-79
2024/01/14 11:30:48;;;;;;;6.83;1.83;;;5.10;99.90;4.10;98155;;;;578033;248;24150;-78
2024/01/14 11:33:40;;;;;;;8.23;2.70;;;5.10;99.90;4.20;98152;;;;569089;248;24119;-79
2024/01/14 11:36:02;;;;;;;3.37;1.77;;;5.20;99.90;4.20;98150;;;;558590;248;24133;-80
2024/01/14 11:38:45;;;;;;;3.33;1.40;;;5.20;99.90;4.20;98147;;;;568922;248;24093;-81